createdAt,value
2017-12-15T00:01:48.523Z,0.33
2017-12-15T00:04:22.187Z,0.00
2017-12-15T00:06:55.875Z,0.00
2017-12-15T00:09:29.733Z,0.00
2017-12-15T00:12:03.928Z,1.00
2017-12-15T00:14:37.727Z,0.00
2017-12-15T00:17:11.422Z,0.50
2017-12-15T00:19:45.056Z,0.00
2017-12-15T00:22:18.717Z,0.67
2017-12-15T00:24:52.141Z,0.00
2017-12-15T00:27:26.171Z,0.00
2017-12-15T00:29:59.967Z,0.00
2017-12-15T00:32:33.678Z,0.83
2017-12-15T00:35:07.500Z,0.00
2017-12-15T00:37:41.326Z,0.00
2017-12-15T00:40:14.865Z,0.00
2017-12-15T00:42:48.757Z,0.00
2017-12-15T00:45:23.001Z,1.00
2017-12-15T00:47:57.279Z,0.17
2017-12-15T00:50:30.933Z,0.00
2017-12-15T00:53:05.091Z,0.00
2017-12-15T00:55:38.980Z,0.00
2017-12-15T00:58:12.589Z,0.00
2017-12-15T01:00:46.569Z,0.00
2017-12-15T01:03:19.993Z,0.00
2017-12-15T01:05:53.733Z,0.00
2017-12-15T01:08:27.472Z,0.50
2017-12-15T01:11:01.406Z,0.17
2017-12-15T01:13:35.025Z,0.00
2017-12-15T01:16:08.677Z,0.67
2017-12-15T01:18:42.475Z,0.00
2017-12-15T01:21:16.645Z,0.00
2017-12-15T01:23:50.314Z,0.17
2017-12-15T01:26:24.133Z,0.00
2017-12-15T01:28:57.896Z,0.00
2017-12-15T01:31:31.639Z,0.00
2017-12-15T01:34:05.313Z,0.00
2017-12-15T01:36:39.365Z,0.00
2017-12-15T01:39:12.980Z,0.00
2017-12-15T01:41:46.737Z,0.00
2017-12-15T01:44:20.485Z,0.00
2017-12-15T01:46:54.059Z,0.00
2017-12-15T01:49:27.676Z,0.00
2017-12-15T01:52:02.064Z,0.00
2017-12-15T01:54:35.734Z,0.00
2017-12-15T01:57:09.187Z,0.00
2017-12-15T01:59:42.922Z,0.00
2017-12-15T02:02:16.607Z,0.00
2017-12-15T02:04:50.363Z,0.00
2017-12-15T02:07:24.351Z,0.00
2017-12-15T02:09:58.014Z,0.00
2017-12-15T02:12:31.968Z,0.00
2017-12-15T02:15:07.085Z,0.50
2017-12-15T02:17:40.842Z,0.00
2017-12-15T02:20:14.688Z,0.00
2017-12-15T02:22:49.633Z,0.00
2017-12-15T02:25:23.226Z,0.00
2017-12-15T02:27:56.864Z,0.00
2017-12-15T02:30:30.637Z,0.00
2017-12-15T02:33:04.190Z,0.00
2017-12-15T02:35:37.895Z,0.00
2017-12-15T02:38:12.094Z,0.00
2017-12-15T02:40:45.953Z,0.00
2017-12-15T02:43:19.505Z,0.00
2017-12-15T02:45:53.335Z,0.00
2017-12-15T02:48:27.255Z,0.00
2017-12-15T02:51:01.102Z,0.00
2017-12-15T02:53:34.917Z,0.00
2017-12-15T02:56:08.458Z,0.00
2017-12-15T02:58:42.072Z,0.00
2017-12-15T03:01:15.713Z,0.00
2017-12-15T03:03:49.738Z,0.00
2017-12-15T03:06:23.326Z,0.00
2017-12-15T03:08:56.980Z,0.00
2017-12-15T03:11:31.066Z,0.50
2017-12-15T03:14:04.859Z,0.00
2017-12-15T03:16:38.383Z,0.00
2017-12-15T03:19:12.305Z,0.00
2017-12-15T03:21:45.982Z,0.00
2017-12-15T03:24:19.800Z,0.00
2017-12-15T03:26:53.497Z,0.00
2017-12-15T03:29:27.347Z,0.00
2017-12-15T03:32:00.901Z,0.00
2017-12-15T03:34:35.170Z,0.00
2017-12-15T03:37:08.781Z,0.00
2017-12-15T03:39:42.567Z,0.00
2017-12-15T03:42:16.153Z,0.17
2017-12-15T03:44:50.086Z,0.00
2017-12-15T03:47:24.314Z,0.00
2017-12-15T03:49:58.005Z,0.00
2017-12-15T03:52:31.615Z,0.00
2017-12-15T03:55:05.269Z,0.00
2017-12-15T03:57:39.054Z,0.00
2017-12-15T04:00:14.776Z,0.00
2017-12-15T04:02:48.088Z,0.00
2017-12-15T04:05:21.688Z,0.00
2017-12-15T04:07:55.432Z,0.00
2017-12-15T04:10:29.047Z,0.00
2017-12-15T04:13:03.064Z,0.00
2017-12-15T04:15:36.692Z,0.00
2017-12-15T04:18:10.299Z,0.00
2017-12-15T04:20:44.081Z,0.00
2017-12-15T04:23:17.599Z,0.33
2017-12-15T04:25:51.251Z,0.00
2017-12-15T04:28:25.389Z,0.00
2017-12-15T04:30:59.001Z,0.00
2017-12-15T04:33:32.560Z,0.00
2017-12-15T04:36:05.997Z,0.00
2017-12-15T04:38:39.712Z,0.00
2017-12-15T04:41:13.761Z,0.50
2017-12-15T04:43:47.828Z,0.00
2017-12-15T04:46:21.428Z,0.00
2017-12-15T04:48:55.150Z,0.00
2017-12-15T04:51:28.701Z,0.00
2017-12-15T04:54:02.258Z,0.00
2017-12-15T04:56:35.949Z,0.00
2017-12-15T04:59:09.856Z,0.00
2017-12-15T05:01:43.615Z,1.00
2017-12-15T05:04:17.539Z,0.00
2017-12-15T05:06:51.150Z,0.00
2017-12-15T05:09:24.642Z,0.00
2017-12-15T05:11:58.363Z,0.00
2017-12-15T05:14:32.558Z,0.00
2017-12-15T05:17:06.251Z,0.00
2017-12-15T05:19:39.991Z,0.00
2017-12-15T05:22:13.860Z,0.00
2017-12-15T05:24:47.560Z,0.00
2017-12-15T05:27:21.281Z,0.00
2017-12-15T05:29:54.953Z,0.00
2017-12-15T05:32:28.553Z,0.00
2017-12-15T05:35:02.413Z,0.00
2017-12-15T05:37:36.025Z,0.00
2017-12-15T05:40:09.789Z,0.00
2017-12-15T05:42:43.305Z,0.00
2017-12-15T05:45:16.858Z,0.00
2017-12-15T05:47:50.810Z,0.00
2017-12-15T05:50:24.622Z,0.00
2017-12-15T05:52:58.544Z,0.17
2017-12-15T05:55:32.672Z,0.00
2017-12-15T05:58:06.359Z,0.00
2017-12-15T06:00:40.169Z,0.00
2017-12-15T06:03:13.891Z,0.00
2017-12-15T06:05:47.743Z,0.00
2017-12-15T06:08:21.529Z,0.00
2017-12-15T06:10:55.622Z,0.00
2017-12-15T06:13:29.327Z,0.00
2017-12-15T06:16:02.972Z,0.50
2017-12-15T06:18:36.749Z,0.00
2017-12-15T06:21:10.593Z,0.00
2017-12-15T06:23:44.342Z,0.00
2017-12-15T06:26:17.968Z,0.00
2017-12-15T06:28:51.758Z,0.00
2017-12-15T06:31:25.773Z,0.00
2017-12-15T06:33:59.436Z,0.00
2017-12-15T06:36:33.529Z,0.00
2017-12-15T06:39:07.120Z,0.00
2017-12-15T06:41:40.793Z,0.00
2017-12-15T06:44:14.596Z,0.00
2017-12-15T06:46:48.329Z,0.00
2017-12-15T06:49:22.640Z,0.00
2017-12-15T06:51:56.462Z,0.00
2017-12-15T06:54:30.138Z,0.00
2017-12-15T06:57:03.880Z,0.00
2017-12-15T06:59:37.634Z,0.83
2017-12-15T07:02:11.322Z,0.00
2017-12-15T07:04:45.209Z,0.00
2017-12-15T07:07:18.858Z,0.00
2017-12-15T07:09:52.696Z,0.00
2017-12-15T07:12:26.525Z,0.00
2017-12-15T07:15:00.188Z,0.00
2017-12-15T07:17:37.308Z,0.00
2017-12-15T07:20:11.596Z,0.00
2017-12-15T07:22:45.416Z,0.00
2017-12-15T07:25:19.592Z,0.00
2017-12-15T07:27:53.046Z,0.00
2017-12-15T07:30:26.593Z,0.00
2017-12-15T07:33:00.375Z,0.00
2017-12-15T07:35:34.364Z,0.00
2017-12-15T07:38:08.121Z,0.00
2017-12-15T07:40:41.882Z,0.00
2017-12-15T07:43:15.795Z,0.00
2017-12-15T07:45:49.527Z,0.50
2017-12-15T07:48:23.652Z,0.00
2017-12-15T07:50:57.388Z,0.00
2017-12-15T07:53:31.244Z,0.00
2017-12-15T07:56:05.431Z,0.00
2017-12-15T07:58:39.048Z,0.00
2017-12-15T08:01:13.044Z,0.00
2017-12-15T08:03:46.851Z,0.00
2017-12-15T08:06:20.571Z,0.00
2017-12-15T08:08:54.245Z,0.00
2017-12-15T08:11:27.956Z,0.00
2017-12-15T08:14:01.473Z,0.00
2017-12-15T08:16:35.275Z,0.00
2017-12-15T08:19:09.508Z,0.00
2017-12-15T08:21:43.237Z,0.00
2017-12-15T08:24:17.006Z,0.00
2017-12-15T08:26:50.841Z,0.00
2017-12-15T08:29:24.689Z,0.00
2017-12-15T08:31:58.986Z,0.00
2017-12-15T08:34:32.942Z,0.00
2017-12-15T08:37:06.762Z,0.00
2017-12-15T08:39:40.521Z,0.00
2017-12-15T08:42:14.262Z,0.00
2017-12-15T08:44:48.114Z,0.00
2017-12-15T08:47:21.948Z,0.00
2017-12-15T08:49:55.817Z,0.00
2017-12-15T08:52:29.647Z,0.00
2017-12-15T08:55:03.578Z,0.00
2017-12-15T08:57:37.430Z,0.00
2017-12-15T09:00:12.333Z,0.50
2017-12-15T09:02:46.057Z,1.17
2017-12-15T09:05:20.523Z,0.00
2017-12-15T09:07:54.204Z,1.00
2017-12-15T09:10:28.757Z,0.33
2017-12-15T09:13:02.952Z,0.50
2017-12-15T09:15:36.583Z,0.17
2017-12-15T09:18:10.231Z,0.00
2017-12-15T09:20:44.013Z,0.00
2017-12-15T09:23:17.732Z,0.00
2017-12-15T09:25:51.961Z,0.67
2017-12-15T09:28:25.635Z,0.00
2017-12-15T09:30:59.466Z,0.83
2017-12-15T09:33:33.300Z,0.00
2017-12-15T09:36:07.980Z,0.00
2017-12-15T09:38:41.706Z,0.00
2017-12-15T09:41:15.932Z,0.00
2017-12-15T09:43:49.602Z,1.00
2017-12-15T09:46:23.585Z,0.00
2017-12-15T09:48:57.279Z,0.50
2017-12-15T09:51:30.967Z,0.00
2017-12-15T09:54:04.714Z,0.00
2017-12-15T09:56:39.013Z,0.00
2017-12-15T09:59:12.810Z,0.17
2017-12-15T10:01:46.691Z,1.00
2017-12-15T10:04:20.965Z,1.00
2017-12-15T10:06:54.470Z,1.00
2017-12-15T10:09:28.220Z,0.50
2017-12-15T10:12:02.045Z,0.17
2017-12-15T10:14:35.822Z,1.00
2017-12-15T10:17:09.783Z,1.00
2017-12-15T10:19:44.099Z,0.50
2017-12-15T10:22:17.942Z,0.17
2017-12-15T10:24:51.672Z,0.00
2017-12-15T10:27:25.392Z,0.00
2017-12-15T10:29:59.493Z,0.00
2017-12-15T10:32:33.266Z,0.00
2017-12-15T10:35:06.839Z,0.33
2017-12-15T10:37:40.859Z,0.67
2017-12-15T10:40:14.464Z,0.33
2017-12-15T10:42:48.085Z,0.17
2017-12-15T10:45:21.864Z,0.33
2017-12-15T10:47:55.511Z,0.00
2017-12-15T10:50:29.362Z,0.50
2017-12-15T10:53:03.722Z,0.00
2017-12-15T10:55:37.582Z,0.00
2017-12-15T10:58:11.393Z,0.33
2017-12-15T11:00:45.165Z,0.83
2017-12-15T11:03:18.811Z,1.00
2017-12-15T11:05:52.584Z,0.83
2017-12-15T11:08:26.515Z,1.00
2017-12-15T11:11:00.244Z,0.00
2017-12-15T11:13:35.398Z,1.00
2017-12-15T11:16:08.989Z,0.17
2017-12-15T11:18:42.611Z,1.00
2017-12-15T11:21:16.472Z,0.00
2017-12-15T11:23:50.262Z,0.00
2017-12-15T11:26:24.223Z,0.83
2017-12-15T11:28:57.871Z,0.00
2017-12-15T11:31:31.615Z,0.00
2017-12-15T11:34:05.234Z,0.00
2017-12-15T11:36:39.221Z,1.00
2017-12-15T11:39:12.863Z,0.33
2017-12-15T11:41:46.741Z,1.00
2017-12-15T11:44:20.521Z,0.83
2017-12-15T11:46:54.514Z,1.00
2017-12-15T11:49:28.655Z,1.00
2017-12-15T11:52:02.924Z,0.00
2017-12-15T11:54:36.918Z,0.50
2017-12-15T11:57:10.696Z,1.00
2017-12-15T11:59:44.352Z,1.00
2017-12-15T12:02:18.599Z,1.00
2017-12-15T12:04:52.775Z,0.00
2017-12-15T12:07:26.514Z,0.33
2017-12-15T12:10:00.102Z,1.00
2017-12-15T12:12:33.900Z,1.00
2017-12-15T12:15:07.730Z,0.83
2017-12-15T12:17:41.909Z,0.50
2017-12-15T12:20:15.525Z,0.00
2017-12-15T12:22:49.399Z,1.00
2017-12-15T12:25:23.247Z,1.00
2017-12-15T12:27:57.084Z,0.83
2017-12-15T12:30:31.126Z,1.00
2017-12-15T12:33:04.947Z,0.00
2017-12-15T12:35:38.702Z,1.00
2017-12-15T12:38:12.353Z,0.67
2017-12-15T12:40:46.416Z,0.00
2017-12-15T12:43:20.090Z,0.00
2017-12-15T12:45:53.874Z,1.00
2017-12-15T12:48:27.609Z,1.00
2017-12-15T12:51:01.633Z,1.00
2017-12-15T12:53:35.433Z,0.83
2017-12-15T12:56:09.896Z,1.00
2017-12-15T12:58:44.052Z,1.00
2017-12-15T13:01:17.681Z,1.00
2017-12-15T13:03:51.435Z,1.00
2017-12-15T13:06:26.070Z,1.00
2017-12-15T13:08:59.842Z,1.00
2017-12-15T13:11:33.664Z,1.00
2017-12-15T13:14:08.435Z,1.00
2017-12-15T13:16:42.196Z,1.00
2017-12-15T13:19:16.065Z,1.83
2017-12-15T13:21:49.885Z,1.17
2017-12-15T13:24:23.630Z,3.50
2017-12-15T13:26:57.951Z,4.00
2017-12-15T13:29:31.574Z,4.00
2017-12-15T13:32:05.228Z,3.67
2017-12-15T13:34:39.005Z,3.67
2017-12-15T13:37:12.848Z,2.33
2017-12-15T13:39:46.290Z,4.00
2017-12-15T13:42:20.015Z,2.67
2017-12-15T13:44:52.004Z,3.00
2017-12-15T13:47:25.841Z,2.00
2017-12-15T13:49:59.799Z,3.50
2017-12-15T13:52:33.700Z,3.17
2017-12-15T13:55:07.389Z,3.00
2017-12-15T13:57:41.527Z,2.17
2017-12-15T14:00:17.072Z,2.67
2017-12-15T14:02:51.162Z,3.00
2017-12-15T14:05:25.199Z,4.00
2017-12-15T14:07:59.074Z,3.00
2017-12-15T14:10:33.182Z,3.00
2017-12-15T14:13:07.028Z,3.00
2017-12-15T14:15:40.733Z,3.83
2017-12-15T14:18:14.648Z,3.00
2017-12-15T14:20:48.382Z,2.83
2017-12-15T14:23:23.122Z,3.00
2017-12-15T14:25:56.744Z,2.83
2017-12-15T14:28:30.391Z,3.00
2017-12-15T14:31:04.047Z,2.33
2017-12-15T14:33:38.099Z,2.00
2017-12-15T14:36:11.850Z,2.00
2017-12-15T14:38:46.580Z,2.00
2017-12-15T14:41:20.139Z,4.00
2017-12-15T14:43:53.807Z,3.00
2017-12-15T14:46:27.524Z,3.00
2017-12-15T14:49:01.316Z,3.00
2017-12-15T14:51:35.059Z,3.00
2017-12-15T14:54:08.624Z,2.50
2017-12-15T14:56:42.298Z,3.00
2017-12-15T14:59:16.089Z,3.00
2017-12-15T15:01:50.044Z,2.50
2017-12-15T15:04:23.737Z,2.83
2017-12-15T15:06:58.129Z,2.33
2017-12-15T15:09:32.019Z,2.83
2017-12-15T15:12:06.156Z,2.00
2017-12-15T15:14:40.020Z,2.83
2017-12-15T15:17:14.280Z,2.50
2017-12-15T15:19:48.473Z,2.67
2017-12-15T15:22:22.438Z,2.00
2017-12-15T15:24:55.965Z,2.00
2017-12-15T15:27:29.627Z,2.00
2017-12-15T15:30:04.513Z,2.67
2017-12-15T15:32:38.561Z,2.83
2017-12-15T15:35:12.433Z,2.00
2017-12-15T15:37:45.972Z,2.00
2017-12-15T15:40:20.094Z,2.00
2017-12-15T15:42:53.650Z,1.50
2017-12-15T15:45:27.182Z,2.00
2017-12-15T15:48:00.704Z,2.00
2017-12-15T15:50:34.476Z,1.83
2017-12-15T15:53:08.124Z,1.83
2017-12-15T15:55:41.953Z,2.17
2017-12-15T15:58:16.096Z,2.00
2017-12-15T16:00:49.965Z,2.17
2017-12-15T16:03:23.730Z,2.00
2017-12-15T16:05:57.558Z,2.00
2017-12-15T16:08:31.424Z,2.00
2017-12-15T16:11:04.962Z,1.00
2017-12-15T16:13:38.885Z,1.67
2017-12-15T16:16:12.533Z,2.00
2017-12-15T16:18:46.373Z,2.33
2017-12-15T16:21:20.158Z,2.00
2017-12-15T16:23:54.200Z,1.00
2017-12-15T16:26:28.214Z,1.00
2017-12-15T16:29:02.272Z,2.00
2017-12-15T16:31:36.002Z,2.00
2017-12-15T16:34:10.227Z,1.00
2017-12-15T16:36:44.121Z,2.00
2017-12-15T16:39:17.517Z,1.50
2017-12-15T16:41:51.163Z,1.83
2017-12-15T16:44:25.386Z,1.83
2017-12-15T16:46:59.831Z,1.17
2017-12-15T16:49:33.742Z,1.17
2017-12-15T16:52:07.517Z,1.50
2017-12-15T16:54:41.260Z,1.83
2017-12-15T16:57:15.110Z,2.00
2017-12-15T16:59:48.939Z,2.00
2017-12-15T17:02:22.702Z,2.00
2017-12-15T17:04:56.511Z,2.00
2017-12-15T17:07:30.232Z,1.33
2017-12-15T17:10:04.145Z,1.67
2017-12-15T17:12:37.893Z,1.67
2017-12-15T17:15:13.926Z,1.50
2017-12-15T17:17:47.546Z,2.00
2017-12-15T17:20:21.292Z,2.00
2017-12-15T17:22:55.087Z,2.17
2017-12-15T17:25:29.236Z,2.00
2017-12-15T17:28:02.727Z,1.67
2017-12-15T17:30:36.566Z,2.00
2017-12-15T17:33:10.252Z,1.83
2017-12-15T17:35:43.927Z,2.00
2017-12-15T17:38:17.828Z,1.33
2017-12-15T17:40:51.917Z,1.67
2017-12-15T17:43:25.704Z,1.50
2017-12-15T17:45:59.878Z,1.50
2017-12-15T17:48:34.390Z,1.33
2017-12-15T17:51:08.172Z,1.33
2017-12-15T17:53:42.347Z,1.17
2017-12-15T17:56:16.186Z,1.50
2017-12-15T17:58:50.099Z,1.50
2017-12-15T18:01:23.832Z,1.00
2017-12-15T18:03:57.661Z,1.17
2017-12-15T18:06:31.260Z,1.00
2017-12-15T18:09:05.642Z,1.00
2017-12-15T18:11:39.436Z,1.00
2017-12-15T18:14:13.230Z,1.00
2017-12-15T18:16:47.128Z,1.00
2017-12-15T18:19:21.258Z,1.00
2017-12-15T18:21:55.294Z,1.00
2017-12-15T18:24:29.046Z,1.00
2017-12-15T18:27:02.933Z,1.00
2017-12-15T18:29:36.684Z,1.00
2017-12-15T18:32:10.695Z,1.67
2017-12-15T18:34:44.494Z,1.17
2017-12-15T18:37:18.312Z,1.00
2017-12-15T18:39:52.197Z,1.00
2017-12-15T18:42:25.954Z,1.00
2017-12-15T18:45:00.101Z,1.00
2017-12-15T18:47:37.260Z,1.00
2017-12-15T18:50:11.071Z,1.00
2017-12-15T18:52:44.693Z,1.67
2017-12-15T18:55:18.300Z,1.00
2017-12-15T18:57:52.065Z,1.00
2017-12-15T19:00:26.334Z,1.00
2017-12-15T19:03:00.202Z,1.17
2017-12-15T19:05:33.710Z,1.00
2017-12-15T19:08:07.265Z,1.83
2017-12-15T19:10:41.102Z,1.00
2017-12-15T19:13:15.197Z,1.00
2017-12-15T19:15:49.168Z,1.00
2017-12-15T19:18:22.977Z,1.00
2017-12-15T19:20:56.464Z,1.00
2017-12-15T19:23:31.079Z,1.00
2017-12-15T19:26:04.897Z,1.00
2017-12-15T19:28:38.712Z,1.00
2017-12-15T19:31:13.036Z,1.00
2017-12-15T19:33:47.134Z,1.67
2017-12-15T19:36:20.935Z,1.00
2017-12-15T19:38:54.849Z,1.50
2017-12-15T19:41:28.795Z,2.00
2017-12-15T19:44:02.689Z,1.00
2017-12-15T19:46:36.782Z,1.00
2017-12-15T19:49:10.648Z,2.00
2017-12-15T19:51:44.453Z,2.00
2017-12-15T19:54:18.331Z,2.00
2017-12-15T19:56:53.419Z,2.00
2017-12-15T19:59:27.048Z,2.00
2017-12-15T20:02:00.835Z,1.00
2017-12-15T20:04:34.999Z,1.50
2017-12-15T20:07:09.091Z,1.00
2017-12-15T20:09:43.492Z,1.33
2017-12-15T20:12:17.705Z,1.83
2017-12-15T20:14:51.444Z,0.83
2017-12-15T20:17:25.253Z,1.00
2017-12-15T20:19:58.942Z,2.00
2017-12-15T20:22:32.951Z,1.00
2017-12-15T20:25:07.274Z,1.17
2017-12-15T20:27:41.009Z,0.50
2017-12-15T20:30:16.331Z,1.17
2017-12-15T20:32:50.958Z,1.00
2017-12-15T20:35:24.709Z,1.67
2017-12-15T20:37:58.637Z,1.00
2017-12-15T20:40:32.354Z,1.00
2017-12-15T20:43:06.193Z,1.00
2017-12-15T20:45:40.677Z,1.00
2017-12-15T20:48:14.427Z,1.00
2017-12-15T20:50:48.275Z,2.00
2017-12-15T20:53:22.995Z,1.17
2017-12-15T20:55:56.916Z,1.17
2017-12-15T20:58:31.295Z,1.00
2017-12-15T21:01:05.004Z,1.00
2017-12-15T21:03:38.619Z,1.50
2017-12-15T21:06:12.911Z,1.33
2017-12-15T21:08:47.241Z,1.50
2017-12-15T21:11:20.965Z,1.83
2017-12-15T21:13:54.593Z,2.00
2017-12-15T21:16:28.387Z,1.00
2017-12-15T21:19:02.147Z,1.83
2017-12-15T21:21:36.037Z,1.83
2017-12-15T21:24:09.677Z,1.00
2017-12-15T21:26:43.516Z,1.00
2017-12-15T21:29:17.307Z,1.00
2017-12-15T21:31:51.278Z,1.33
2017-12-15T21:34:24.987Z,1.83
2017-12-15T21:36:59.050Z,1.00
2017-12-15T21:39:33.098Z,1.67
2017-12-15T21:42:06.832Z,1.67
2017-12-15T21:44:40.616Z,1.00
2017-12-15T21:47:14.834Z,1.00
2017-12-15T21:49:48.574Z,2.00
2017-12-15T21:52:22.198Z,1.00
2017-12-15T21:54:56.870Z,1.00
2017-12-15T21:57:30.738Z,1.00
2017-12-15T22:00:06.094Z,1.33
2017-12-15T22:02:39.803Z,2.00
2017-12-15T22:05:14.290Z,1.00
2017-12-15T22:07:48.168Z,2.00
2017-12-15T22:10:21.894Z,1.00
2017-12-15T22:12:55.558Z,1.67
2017-12-15T22:15:29.606Z,1.00
2017-12-15T22:18:03.416Z,1.17
2017-12-15T22:20:37.156Z,1.00
2017-12-15T22:23:10.989Z,1.17
2017-12-15T22:25:44.802Z,1.00
2017-12-15T22:28:18.630Z,1.00
2017-12-15T22:30:52.741Z,1.00
2017-12-15T22:33:26.364Z,1.00
2017-12-15T22:36:00.165Z,2.00
2017-12-15T22:38:33.841Z,1.33
2017-12-15T22:41:07.956Z,2.00
2017-12-15T22:43:41.601Z,1.33
2017-12-15T22:46:16.058Z,1.67
2017-12-15T22:48:49.902Z,2.00
2017-12-15T22:51:23.598Z,1.00
2017-12-15T22:53:58.244Z,2.00
2017-12-15T22:56:32.182Z,1.50
2017-12-15T22:59:05.867Z,1.00
2017-12-15T23:01:39.513Z,2.00
2017-12-15T23:04:13.280Z,1.00
2017-12-15T23:06:47.325Z,2.00
2017-12-15T23:09:21.097Z,3.83
2017-12-15T23:11:53.665Z,4.00
2017-12-15T23:14:27.331Z,3.00
2017-12-15T23:17:01.096Z,4.00
2017-12-15T23:19:35.419Z,5.00
2017-12-15T23:22:09.176Z,4.00
2017-12-15T23:24:42.924Z,4.00
2017-12-15T23:27:16.762Z,4.00
2017-12-15T23:29:50.563Z,4.33
2017-12-15T23:32:24.967Z,6.00
2017-12-15T23:34:58.516Z,5.00
2017-12-15T23:37:32.176Z,4.33
2017-12-15T23:40:06.502Z,3.50
2017-12-15T23:42:40.800Z,4.67
2017-12-15T23:45:16.452Z,4.33
2017-12-15T23:47:50.295Z,3.83
2017-12-15T23:50:23.980Z,4.33
2017-12-15T23:52:58.147Z,4.00
2017-12-15T23:57:38.770Z,4.00
